Time;durP1;ratioP1;P1;durP2;ratioP2;P2;SDS_P1;SDS_P2;PMS_P1;PMS_P2;Temp;Humidity;BMP_temperature;BMP_pressure;BME280_temperature;BME280_humidity;BME280_pressure;Samples;Min_cycle;Max_cycle;Signal;HPM_P1;HPM_P2
2021/08/18 00:02:24;;;;;;;5.65;2.95;;;;;;;12.76;78.23;98332.66;125060;1103;26264;-70
2021/08/18 00:04:53;;;;;;;6.15;3.40;;;;;;;12.80;77.88;98333.77;124995;1103;22799;-71
2021/08/18 00:07:20;;;;;;;5.63;3.90;;;;;;;12.80;77.91;98326.42;125011;1103;22879;-70
2021/08/18 00:09:49;;;;;;;6.13;3.83;;;;;;;12.80;78.11;98329.16;125256;1103;22911;-70
2021/08/18 00:12:17;;;;;;;5.10;3.70;;;;;;;12.81;77.50;98338.98;125211;1103;23690;-71
2021/08/18 00:14:46;;;;;;;4.07;2.93;;;;;;;12.83;77.59;98334.06;125237;1102;22809;-71
2021/08/18 00:17:13;;;;;;;6.43;3.53;;;;;;;12.84;77.40;98337.64;125067;1103;22801;-71
2021/08/18 00:19:40;;;;;;;9.50;3.90;;;;;;;12.86;77.63;98335.47;125074;1103;24635;-71
2021/08/18 00:22:07;;;;;;;4.30;3.10;;;;;;;12.89;77.26;98333.03;125025;1103;26261;-71
2021/08/18 00:24:34;;;;;;;6.70;3.10;;;;;;;12.88;76.64;98330.56;124950;1103;23108;-71
2021/08/18 00:27:01;;;;;;;5.20;3.20;;;;;;;12.88;77.19;98327.83;124937;1102;22930;-71
2021/08/18 00:29:28;;;;;;;5.73;2.80;;;;;;;12.91;76.71;98327.30;124976;1103;23293;-71
2021/08/18 00:31:54;;;;;;;7.90;3.20;;;;;;;12.94;76.65;98339.61;124933;1103;22856;-71
2021/08/18 00:34:21;;;;;;;4.70;2.90;;;;;;;12.97;76.18;98341.83;124987;1102;22815;-71
2021/08/18 00:36:48;;;;;;;4.70;3.05;;;;;;;12.98;76.51;98335.25;124932;1103;23329;-71
2021/08/18 00:39:15;;;;;;;6.45;3.10;;;;;;;12.99;76.35;98332.26;124807;1103;26091;-71
2021/08/18 00:41:45;;;;;;;5.70;3.60;;;;;;;12.98;75.93;98333.36;125062;1103;23059;-71
2021/08/18 00:44:13;;;;;;;8.00;3.05;;;;;;;12.99;75.82;98329.52;125095;1103;22935;-71
2021/08/18 00:46:54;;;;;;;5.25;3.45;;;;;;;13.00;76.24;98328.45;124906;1102;22909;-71
2021/08/18 00:49:22;;;;;;;6.30;3.70;;;;;;;13.02;76.35;98328.19;124916;1102;22816;-71
2021/08/18 00:51:51;;;;;;;12.10;3.80;;;;;;;13.03;76.04;98330.66;124963;1103;22867;-71
2021/08/18 00:54:21;;;;;;;8.20;4.33;;;;;;;13.04;76.41;98337.76;125057;1101;22976;-71
2021/08/18 00:56:51;;;;;;;5.45;3.50;;;;;;;13.06;76.22;98340.23;125054;1103;22766;-71
2021/08/18 00:59:20;;;;;;;7.40;3.50;;;;;;;13.06;76.07;98332.03;124909;1103;22885;-71
2021/08/18 01:01:47;;;;;;;6.80;3.67;;;;;;;13.07;76.16;98330.95;124894;1103;22820;-71
2021/08/18 01:04:16;;;;;;;6.70;3.90;;;;;;;13.05;75.67;98327.64;125074;1101;22832;-71
2021/08/18 01:06:46;;;;;;;5.80;3.80;;;;;;;13.09;76.32;98336.98;124985;1102;22912;-71
2021/08/18 01:09:18;;;;;;;8.85;4.70;;;;;;;13.08;75.98;98330.70;124981;1103;22725;-71
2021/08/18 01:11:49;;;;;;;10.80;4.30;;;;;;;13.08;76.31;98340.78;124845;1103;22841;-71
2021/08/18 01:14:17;;;;;;;6.33;3.87;;;;;;;13.08;75.72;98341.63;125050;1103;22970;-71
2021/08/18 01:16:47;;;;;;;7.90;4.28;;;;;;;13.08;76.42;98329.85;125115;1103;22943;-71
2021/08/18 01:19:16;;;;;;;8.80;4.45;;;;;;;13.10;75.89;98324.94;124950;1103;22817;-71
2021/08/18 01:21:49;;;;;;;10.05;5.35;;;;;;;13.11;75.88;98332.88;125048;1103;23232;-71
2021/08/18 01:24:21;;;;;;;11.70;5.55;;;;;;;13.10;76.08;98341.34;125264;1103;23716;-71
2021/08/18 01:26:48;;;;;;;12.10;4.45;;;;;;;13.09;76.47;98339.72;125104;1101;22833;-71
2021/08/18 01:29:17;;;;;;;;;;;;;;;13.08;76.26;98344.37;125031;1101;25890;-71
2021/08/18 01:31:43;;;;;;;15.87;5.30;;;;;;;13.06;76.00;98340.23;125059;1103;21473;-71
2021/08/18 01:34:10;;;;;;;10.90;4.75;;;;;;;13.04;75.94;98337.76;125091;1103;22969;-71
2021/08/18 01:36:38;;;;;;;14.95;4.95;;;;;;;13.02;75.98;98323.53;125101;1102;23806;-71
2021/08/18 01:39:09;;;;;;;13.20;4.90;;;;;;;12.98;75.65;98330.63;125020;1102;22857;-71
2021/08/18 01:41:36;;;;;;;10.05;4.35;;;;;;;12.97;75.92;98330.89;125045;1102;24229;-71
2021/08/18 01:44:17;;;;;;;13.47;5.00;;;;;;;12.96;75.46;98329.23;125093;1103;23486;-71
2021/08/18 01:46:44;;;;;;;13.45;4.70;;;;;;;12.96;76.07;98326.50;125043;1102;22859;-71
2021/08/18 01:49:12;;;;;;;14.75;5.25;;;;;;;12.94;75.96;98325.94;124988;1103;27208;-71
2021/08/18 01:51:38;;;;;;;12.80;4.30;;;;;;;12.94;75.73;98321.29;124984;1103;22980;-71
2021/08/18 01:54:05;;;;;;;13.45;5.25;;;;;;;12.91;75.08;98322.66;125161;1103;22815;-71
2021/08/18 01:56:35;;;;;;;16.25;5.05;;;;;;;12.88;75.65;98319.63;125083;1101;22799;-71
2021/08/18 01:59:02;;;;;;;;;;;;;;;12.87;75.26;98315.23;125158;1103;22867;-71
2021/08/18 02:01:28;;;;;;;9.60;4.40;;;;;;;12.84;75.32;98313.86;125157;1103;24245;-71
2021/08/18 02:03:55;;;;;;;7.90;4.10;;;;;;;12.82;75.44;98309.73;125094;1102;22909;-71
2021/08/18 02:06:24;;;;;;;10.70;5.05;;;;;;;12.81;75.34;98310.84;125020;1101;23339;-71
2021/08/18 02:08:51;;;;;;;10.80;4.90;;;;;;;12.79;75.76;98311.09;124978;1103;26047;-71
2021/08/18 02:11:18;;;;;;;12.65;4.85;;;;;;;12.78;75.20;98312.17;125000;1103;22854;-71
2021/08/18 02:13:45;;;;;;;12.70;3.97;;;;;;;12.80;76.00;98314.64;125071;1103;22886;-71
2021/08/18 02:16:12;;;;;;;15.00;4.75;;;;;;;12.83;75.88;98309.47;125178;1103;23073;-71
2021/08/18 02:18:39;;;;;;;11.10;4.70;;;;;;;12.86;76.01;98319.07;125093;1101;23928;-71
2021/08/18 02:21:05;;;;;;;14.10;5.40;;;;;;;12.87;75.26;98316.08;125065;1103;22842;-71
2021/08/18 02:23:32;;;;;;;9.17;6.10;;;;;;;12.88;75.22;98316.89;125218;1101;22834;-71
2021/08/18 02:25:59;;;;;;;9.30;5.10;;;;;;;12.87;75.10;98315.23;125161;1103;26315;-71
2021/08/18 02:28:26;;;;;;;10.65;4.45;;;;;;;12.88;75.06;98311.42;125126;1104;23158;-71
2021/08/18 02:30:52;;;;;;;13.00;5.15;;;;;;;12.90;75.04;98306.52;125058;1103;22886;-71
2021/08/18 02:33:24;;;;;;;10.83;5.17;;;;;;;12.87;75.57;98301.56;125028;1103;22859;-71
2021/08/18 02:35:52;;;;;;;12.35;4.25;;;;;;;12.85;74.95;98292.81;125089;1103;22837;-71
2021/08/18 02:38:18;;;;;;;11.00;4.95;;;;;;;12.81;75.81;98297.17;125235;1102;22836;-71
2021/08/18 02:40:45;;;;;;;9.20;4.15;;;;;;;12.77;75.25;98301.53;125158;1103;23755;-71
2021/08/18 02:43:12;;;;;;;8.50;3.65;;;;;;;12.75;75.14;98295.48;124964;1102;22842;-71
2021/08/18 02:45:39;;;;;;;10.20;4.00;;;;;;;12.73;75.60;98298.50;125012;1103;22842;-71
2021/08/18 02:48:07;;;;;;;11.47;4.43;;;;;;;12.70;75.72;98294.37;125058;1103;22866;-71
2021/08/18 02:50:34;;;;;;;11.75;4.80;;;;;;;12.71;75.79;98295.18;125224;1101;22842;-71
2021/08/18 02:53:01;;;;;;;12.55;4.90;;;;;;;12.72;75.66;98305.03;125119;1101;23955;-71
2021/08/18 02:55:28;;;;;;;11.80;4.40;;;;;;;12.71;76.00;98312.42;125162;1103;22852;-71
2021/08/18 02:57:56;;;;;;;9.45;3.65;;;;;;;12.75;75.71;98318.18;125003;1103;22812;-71
2021/08/18 03:00:27;;;;;;;12.03;4.20;;;;;;;12.76;75.50;98325.27;125006;1101;24703;-71
2021/08/18 03:02:54;;;;;;;13.27;5.00;;;;;;;12.79;75.80;98323.94;125312;1103;22911;-71
2021/08/18 03:05:20;;;;;;;13.50;4.93;;;;;;;12.82;75.29;98332.44;125105;1102;26137;-71
2021/08/18 03:07:47;;;;;;;9.90;5.10;;;;;;;12.84;75.78;98335.73;125109;1103;22845;-71
2021/08/18 03:10:19;;;;;;;10.10;4.90;;;;;;;12.87;75.42;98342.56;125161;1103;22869;-71
2021/08/18 03:12:46;;;;;;;12.30;4.30;;;;;;;12.90;75.40;98347.52;125172;1103;22818;-71
2021/08/18 03:15:14;;;;;;;11.10;4.20;;;;;;;12.95;75.95;98350.28;125056;1101;22893;-71
2021/08/18 03:17:41;;;;;;;13.00;4.85;;;;;;;12.98;76.13;98349.77;125252;1103;22899;-71
2021/08/18 03:20:09;;;;;;;10.40;4.45;;;;;;;13.01;76.21;98357.41;125079;1103;26293;-71
2021/08/18 03:22:36;;;;;;;10.17;4.80;;;;;;;12.97;76.65;98350.84;125208;1103;23535;-71
2021/08/18 03:25:04;;;;;;;11.90;5.10;;;;;;;13.02;76.04;98348.14;125151;1101;26009;-71
2021/08/18 03:27:31;;;;;;;12.23;4.03;;;;;;;13.03;76.24;98347.06;125111;1103;22847;-71
2021/08/18 03:30:00;;;;;;;10.70;4.45;;;;;;;13.06;75.77;98343.78;125070;1102;25890;-71
2021/08/18 03:32:27;;;;;;;10.30;5.10;;;;;;;13.07;76.21;98342.70;124954;1103;22912;-71
2021/08/18 03:34:54;;;;;;;9.80;4.57;;;;;;;13.07;77.23;98345.44;125411;1103;22827;-71
2021/08/18 03:37:21;;;;;;;10.55;4.20;;;;;;;13.06;77.35;98340.23;125124;1103;22912;-71
2021/08/18 03:39:50;;;;;;;7.10;3.70;;;;;;;13.08;77.00;98338.05;125092;1103;22928;-71
2021/08/18 03:42:17;;;;;;;11.97;4.67;;;;;;;13.08;76.86;98338.90;125080;1103;22949;-71
2021/08/18 03:44:43;;;;;;;10.23;4.50;;;;;;;13.11;77.83;98335.61;125154;1103;27362;-71
2021/08/18 03:47:10;;;;;;;9.65;4.35;;;;;;;13.14;77.35;98336.17;125235;1103;22834;-71
2021/08/18 03:49:37;;;;;;;13.70;4.55;;;;;;;13.15;77.78;98343.30;125085;1103;23011;-71
2021/08/18 03:52:06;;;;;;;8.40;4.00;;;;;;;13.15;77.50;98341.38;125027;1103;23013;-71
2021/08/18 03:54:34;;;;;;;10.33;4.03;;;;;;;13.16;77.57;98339.48;125257;1102;22922;-71
2021/08/18 03:57:01;;;;;;;10.20;4.70;;;;;;;13.17;78.14;98330.17;125149;1101;25963;-71
2021/08/18 03:59:28;;;;;;;9.10;4.60;;;;;;;13.17;77.45;98335.64;125116;1103;25925;-71
2021/08/18 04:01:54;;;;;;;9.90;5.00;;;;;;;13.16;77.40;98326.63;125101;1102;23174;-71
2021/08/18 04:04:21;;;;;;;11.55;4.75;;;;;;;13.19;78.23;98323.38;125100;1102;23101;-71
2021/08/18 04:06:48;;;;;;;8.43;4.23;;;;;;;13.20;77.99;98335.94;125129;1100;24518;-71
2021/08/18 04:09:15;;;;;;;6.55;3.30;;;;;;;13.21;78.27;98334.02;125047;1102;22894;-71
2021/08/18 04:11:42;;;;;;;11.15;4.95;;;;;;;13.22;77.94;98339.23;125080;1101;22960;-71
2021/08/18 04:14:10;;;;;;;7.85;4.30;;;;;;;13.23;78.10;98329.13;125010;1103;22883;-71
2021/08/18 04:16:38;;;;;;;12.20;6.33;;;;;;;13.25;77.87;98337.89;125108;1103;22834;-71
2021/08/18 04:19:05;;;;;;;8.90;4.80;;;;;;;13.25;78.38;98341.44;125066;1102;22842;-71
2021/08/18 04:21:31;;;;;;;10.10;4.20;;;;;;;13.25;78.29;98338.70;125150;1103;22831;-71
2021/08/18 04:23:58;;;;;;;8.35;4.10;;;;;;;13.27;77.56;98338.44;125039;1103;23062;-71
2021/08/18 04:26:25;;;;;;;9.15;4.25;;;;;;;13.31;77.92;98350.52;125127;1103;22928;-71
2021/08/18 04:28:51;;;;;;;10.20;4.70;;;;;;;13.33;78.08;98342.05;125181;1103;22845;-71
2021/08/18 04:31:18;;;;;;;10.40;5.00;;;;;;;13.33;77.84;98344.78;125064;1102;22833;-71
2021/08/18 04:33:45;;;;;;;10.45;4.75;;;;;;;13.27;77.53;98343.91;125105;1102;23111;-71
2021/08/18 04:36:12;;;;;;;7.95;4.50;;;;;;;13.29;77.12;98352.67;125086;1103;24116;-71
2021/08/18 04:38:38;;;;;;;11.90;4.20;;;;;;;13.32;77.54;98357.65;125033;1102;22856;-71
2021/08/18 04:41:05;;;;;;;9.65;4.50;;;;;;;13.37;77.57;98365.88;125028;1102;22837;-71
2021/08/18 04:43:32;;;;;;;9.40;4.65;;;;;;;13.45;77.15;98368.09;125166;1102;22876;-71
2021/08/18 04:45:59;;;;;;;13.15;5.10;;;;;;;13.52;76.93;98369.78;125353;1102;22777;-71
2021/08/18 04:48:25;;;;;;;11.20;5.05;;;;;;;13.58;77.46;98365.97;125110;1103;22720;-71
2021/08/18 04:50:52;;;;;;;8.00;4.50;;;;;;;13.62;78.02;98361.63;125043;1102;23440;-71
2021/08/18 04:53:19;;;;;;;11.23;4.27;;;;;;;13.66;78.17;98371.75;125235;1102;26092;-71
2021/08/18 04:55:46;;;;;;;10.90;4.60;;;;;;;13.71;78.05;98364.67;125046;1103;22989;-71
2021/08/18 04:58:12;;;;;;;12.35;5.30;;;;;;;13.76;78.23;98362.77;125276;1103;27329;-71
2021/08/18 05:00:39;;;;;;;14.60;5.60;;;;;;;13.80;77.77;98360.32;125006;1103;22856;-71
2021/08/18 05:03:11;;;;;;;13.85;5.00;;;;;;;13.79;77.67;98362.24;124893;1103;23523;-71
2021/08/18 05:05:38;;;;;;;10.60;4.30;;;;;;;13.80;77.52;98368.53;124912;1103;22879;-71
2021/08/18 05:08:06;;;;;;;8.10;4.10;;;;;;;13.85;77.61;98372.10;125033;1103;22815;-71
2021/08/18 05:10:35;;;;;;;13.25;4.83;;;;;;;13.93;77.22;98376.22;124939;1101;22681;-71
2021/08/18 05:13:03;;;;;;;7.95;4.20;;;;;;;14.01;77.27;98367.50;124889;1103;23008;-71
2021/08/18 05:15:31;;;;;;;9.65;4.50;;;;;;;14.08;76.33;98375.46;124887;1102;22855;-71
2021/08/18 05:17:57;;;;;;;9.60;4.00;;;;;;;14.14;75.82;98368.08;125146;1101;22876;-71
2021/08/18 05:20:24;;;;;;;9.20;4.20;;;;;;;14.18;75.40;98370.02;124983;1103;25874;-71
2021/08/18 05:22:51;;;;;;;8.85;4.45;;;;;;;14.18;74.42;98369.17;124924;1103;26287;-71
2021/08/18 05:25:19;;;;;;;9.20;4.10;;;;;;;14.21;74.75;98358.49;124993;1102;23047;-71
2021/08/18 05:27:46;;;;;;;5.60;3.40;;;;;;;14.21;74.48;98361.23;124962;1103;22932;-71
2021/08/18 05:30:27;;;;;;;6.40;3.50;;;;;;;14.26;73.96;98368.65;124987;1103;22833;-71
2021/08/18 05:32:54;;;;;;;8.07;3.77;;;;;;;14.31;73.81;98365.92;124934;1103;22821;-71
2021/08/18 05:35:21;;;;;;;8.17;3.70;;;;;;;14.31;73.41;98365.92;124939;1103;22916;-71
2021/08/18 05:37:48;;;;;;;6.40;3.70;;;;;;;14.34;73.31;98372.77;124900;1102;22901;-71
2021/08/18 05:40:15;;;;;;;7.87;3.63;;;;;;;14.38;73.45;98382.10;124849;1102;25932;-71
2021/08/18 05:42:41;;;;;;;12.10;4.20;;;;;;;14.41;73.61;98376.91;124908;1103;22916;-71
2021/08/18 05:45:09;;;;;;;8.20;3.25;;;;;;;14.46;73.23;98376.06;124871;1102;22879;-71
2021/08/18 05:47:50;;;;;;;8.70;3.70;;;;;;;14.50;73.44;98368.97;124935;1103;27377;-71
2021/08/18 05:50:17;;;;;;;6.10;3.70;;;;;;;14.58;73.89;98368.44;124937;1103;22848;-71
2021/08/18 05:52:44;;;;;;;12.25;4.40;;;;;;;14.64;73.28;98374.73;124880;1103;22838;-71
2021/08/18 05:55:12;;;;;;;6.87;3.67;;;;;;;14.68;72.81;98377.75;124957;1103;22870;-71
2021/08/18 05:57:39;;;;;;;7.60;4.00;;;;;;;14.69;72.88;98368.44;125142;1103;22878;-71
2021/08/18 06:00:06;;;;;;;9.17;4.67;;;;;;;14.70;72.63;98376.39;125121;1103;22949;-71
2021/08/18 06:02:33;;;;;;;6.50;3.40;;;;;;;14.74;72.39;98366.52;124941;1101;25865;-71
2021/08/18 06:05:00;;;;;;;5.70;3.40;;;;;;;14.80;72.41;98372.81;124929;1103;24100;-71
2021/08/18 06:07:27;;;;;;;10.00;4.15;;;;;;;14.85;72.39;98372.81;124831;1103;22866;-71
2021/08/18 06:09:53;;;;;;;7.80;3.45;;;;;;;14.90;72.19;98374.75;124933;1103;24482;-71
2021/08/18 06:12:20;;;;;;;8.07;4.10;;;;;;;14.93;72.26;98387.91;125101;1102;22900;-71
2021/08/18 06:14:47;;;;;;;5.00;3.35;;;;;;;14.95;72.07;98372.81;124923;1102;24468;-71
2021/08/18 06:17:14;;;;;;;7.20;3.90;;;;;;;14.99;72.26;98378.56;125024;1102;22828;-71
2021/08/18 06:19:41;;;;;;;10.35;4.45;;;;;;;15.03;72.03;98384.33;125015;1103;22845;-71
2021/08/18 06:22:07;;;;;;;7.27;3.60;;;;;;;15.08;71.92;98379.65;125024;1103;22850;-71
2021/08/18 06:24:41;;;;;;;9.40;4.40;;;;;;;15.12;71.67;98383.50;125043;1102;23292;-71
2021/08/18 06:27:11;;;;;;;13.15;4.35;;;;;;;15.21;71.42;98386.51;124877;1103;26280;-71
2021/08/18 06:29:39;;;;;;;7.17;4.73;;;;;;;15.26;70.92;98377.42;124981;1103;22838;-71
2021/08/18 06:32:06;;;;;;;9.10;4.60;;;;;;;15.30;71.12;98381.28;125026;1103;22990;-71
2021/08/18 06:34:34;;;;;;;7.53;4.73;;;;;;;15.33;70.54;98378.80;124931;1103;22829;-71
2021/08/18 06:37:04;;;;;;;7.65;4.20;;;;;;;15.41;70.82;98377.40;125144;1103;22988;-71
2021/08/18 06:39:33;;;;;;;7.30;4.47;;;;;;;15.45;70.78;98375.73;124949;1103;22911;-71
2021/08/18 06:42:01;;;;;;;10.70;4.68;;;;;;;15.50;70.07;98381.20;124947;1103;22867;-71
2021/08/18 06:44:27;;;;;;;12.00;5.15;;;;;;;15.57;70.40;98378.98;125318;1102;22847;-71
2021/08/18 06:46:54;;;;;;;10.77;5.03;;;;;;;15.65;70.31;98380.35;124991;1103;22818;-71
2021/08/18 06:49:21;;;;;;;8.50;4.37;;;;;;;15.72;70.69;98372.64;125371;1102;22989;-71
2021/08/18 06:51:48;;;;;;;10.00;5.05;;;;;;;15.83;70.27;98376.19;125534;1102;22880;-71
2021/08/18 06:54:15;;;;;;;7.80;4.73;;;;;;;15.92;69.59;98370.93;125384;1102;27233;-71
2021/08/18 06:56:57;;;;;;;8.90;4.90;;;;;;;16.00;69.17;98373.06;125378;1103;27555;-71
2021/08/18 06:59:24;;;;;;;7.30;4.50;;;;;;;16.05;69.03;98372.23;125030;1103;26481;-71
2021/08/18 07:01:51;;;;;;;10.33;5.63;;;;;;;16.08;68.89;98368.92;125161;1103;22823;-71
2021/08/18 07:04:18;;;;;;;9.20;4.50;;;;;;;16.20;69.03;98368.56;125306;1102;22818;-71
2021/08/18 07:06:45;;;;;;;10.67;4.70;;;;;;;16.25;68.13;98366.60;125446;1102;23299;-71
2021/08/18 07:09:12;;;;;;;6.75;4.88;;;;;;;16.31;67.55;98365.48;127011;1102;22674;-71
2021/08/18 07:11:39;;;;;;;9.08;4.83;;;;;;;16.35;68.07;98360.23;125487;1102;23018;-71
2021/08/18 07:14:06;;;;;;;11.08;5.00;;;;;;;16.38;67.15;98356.92;125231;1102;22828;-71
2021/08/18 07:16:36;;;;;;;12.90;5.20;;;;;;;16.38;67.52;98359.67;125405;1103;23063;-71
2021/08/18 07:19:04;;;;;;;9.58;4.73;;;;;;;16.40;67.81;98365.70;125393;1103;22839;-71
2021/08/18 07:21:31;;;;;;;8.18;4.98;;;;;;;16.39;67.04;98369.53;125513;1103;24357;-71
2021/08/18 07:23:57;;;;;;;8.87;5.03;;;;;;;16.37;66.59;98368.19;125539;1103;26274;-71
2021/08/18 07:26:26;;;;;;;10.18;5.10;;;;;;;16.35;67.31;98364.91;125083;1103;22858;-71
2021/08/18 07:28:54;;;;;;;11.60;5.10;;;;;;;16.31;66.97;98368.23;125421;1102;23882;-71
2021/08/18 07:31:21;;;;;;;7.80;4.73;;;;;;;16.27;67.14;98372.66;125944;1101;22810;-71
2021/08/18 07:33:48;;;;;;;11.73;5.30;;;;;;;16.28;67.48;98373.47;125078;1103;24529;-71
2021/08/18 07:36:15;;;;;;;7.38;4.25;;;;;;;16.35;66.90;98367.66;124916;1103;22872;-70
2021/08/18 07:38:42;;;;;;;10.53;5.00;;;;;;;16.36;64.94;98372.03;125271;1103;22822;-71
2021/08/18 07:41:10;;;;;;;10.35;5.48;;;;;;;16.33;65.11;98371.50;125004;1102;22848;-71
2021/08/18 07:43:37;;;;;;;11.17;5.43;;;;;;;16.33;64.73;98367.95;125044;1103;22848;-71
2021/08/18 07:46:04;;;;;;;10.20;5.45;;;;;;;16.32;64.40;98369.03;126138;1101;22860;-72
2021/08/18 07:48:31;;;;;;;9.95;4.70;;;;;;;16.32;64.16;98366.29;125685;1102;24501;-71
2021/08/18 07:50:59;;;;;;;9.13;4.98;;;;;;;16.30;65.03;98369.31;125684;1103;22842;-71
2021/08/18 07:53:26;;;;;;;9.23;5.03;;;;;;;16.30;64.26;98360.27;125620;1103;22689;-71
2021/08/18 07:55:53;;;;;;;10.95;5.43;;;;;;;16.33;65.51;98367.95;125455;1103;24472;-71
2021/08/18 07:58:22;;;;;;;9.33;6.00;;;;;;;16.40;64.28;98362.95;125667;1102;22815;-71
2021/08/18 08:00:49;;;;;;;9.23;5.70;;;;;;;16.44;64.08;98372.25;125742;1101;23664;-71
2021/08/18 08:03:16;;;;;;;9.40;5.20;;;;;;;16.48;63.56;98361.51;125495;1103;23177;-71
2021/08/18 08:05:43;;;;;;;8.23;5.68;;;;;;;16.57;63.67;98368.03;125936;1103;24505;-71
2021/08/18 08:08:24;;;;;;;10.58;6.30;;;;;;;16.68;64.05;98355.05;125573;1103;22858;-71
2021/08/18 08:10:51;;;;;;;9.15;5.45;;;;;;;16.81;64.37;98351.63;125802;1103;22961;-71
2021/08/18 08:13:18;;;;;;;10.50;5.90;;;;;;;16.96;64.70;98360.88;125735;1101;22826;-70
2021/08/18 08:15:45;;;;;;;10.73;5.33;;;;;;;17.07;64.33;98356.94;125811;1102;23041;-69
2021/08/18 08:18:12;;;;;;;9.80;5.00;;;;;;;17.21;63.74;98359.80;125841;1102;22827;-70
2021/08/18 08:20:39;;;;;;;10.75;5.45;;;;;;;17.39;62.70;98350.00;125524;1101;26022;-69
2021/08/18 08:23:07;;;;;;;11.28;5.68;;;;;;;17.55;62.94;98350.64;125965;1102;24782;-70
2021/08/18 08:25:34;;;;;;;11.18;5.78;;;;;;;17.68;62.86;98349.91;125577;1101;22845;-69
2021/08/18 08:28:00;;;;;;;11.38;6.18;;;;;;;17.77;61.51;98350.08;125214;1103;27224;-70
2021/08/18 08:30:42;;;;;;;12.25;5.78;;;;;;;17.81;61.05;98346.45;125373;1102;22828;-69
2021/08/18 08:33:08;;;;;;;11.57;5.90;;;;;;;17.80;61.00;98350.31;125614;1103;22687;-70
2021/08/18 08:35:36;;;;;;;12.53;6.07;;;;;;;17.78;60.33;98335.20;126043;1101;22818;-70
2021/08/18 08:38:02;;;;;;;7.35;5.15;;;;;;;17.82;60.15;98339.00;125752;1103;25919;-69
2021/08/18 08:40:29;;;;;;;12.50;5.20;;;;;;;17.86;60.27;98347.52;125695;1102;22868;-70
2021/08/18 08:42:57;;;;;;;13.13;5.30;;;;;;;17.84;59.69;98342.28;125634;1103;22965;-69
2021/08/18 08:45:25;;;;;;;12.00;7.08;;;;;;;17.90;60.11;98346.65;125462;1103;25510;-69
2021/08/18 08:47:53;;;;;;;9.88;6.05;;;;;;;18.01;59.94;98339.88;125418;1102;22845;-69
2021/08/18 08:50:35;;;;;;;10.97;5.67;;;;;;;18.14;59.57;98334.73;125280;1103;22868;-70
2021/08/18 08:53:02;;;;;;;10.17;6.00;;;;;;;18.28;58.58;98335.63;125892;1103;26280;-70
2021/08/18 08:55:28;;;;;;;11.93;6.38;;;;;;;18.41;58.19;98328.53;125655;1103;22930;-69
2021/08/18 08:57:56;;;;;;;9.18;5.90;;;;;;;18.48;57.82;98312.42;125494;1103;22817;-70
2021/08/18 09:00:25;;;;;;;9.80;5.70;;;;;;;18.62;59.70;98317.19;125657;1103;22963;-70
2021/08/18 09:03:15;;;;;;;10.40;6.03;;;;;;;18.79;58.92;98321.02;125418;1102;22908;-70
2021/08/18 09:05:46;;;;;;;10.50;6.18;;;;;;;18.95;58.73;98315.27;125698;1103;24482;-70
2021/08/18 09:08:24;;;;;;;13.48;6.85;;;;;;;19.03;57.62;98316.50;125845;1103;22827;-70
2021/08/18 09:11:11;;;;;;;9.63;5.80;;;;;;;19.07;57.41;98312.84;125494;1103;22912;-70
2021/08/18 09:13:47;;;;;;;10.53;6.03;;;;;;;19.27;58.35;98306.09;125425;1102;22971;-70
2021/08/18 09:16:17;;;;;;;11.25;5.83;;;;;;;19.43;58.24;98308.56;125849;1101;22899;-70
2021/08/18 09:18:54;;;;;;;11.13;6.10;;;;;;;19.53;56.29;98302.84;125777;1102;22856;-70
2021/08/18 09:21:39;;;;;;;9.48;5.70;;;;;;;19.65;55.32;98300.34;125727;1102;22932;-70
2021/08/18 09:24:12;;;;;;;9.85;6.00;;;;;;;19.71;56.16;98304.65;125609;1101;22805;-69
2021/08/18 09:26:46;;;;;;;10.87;5.97;;;;;;;19.82;55.19;98302.52;125318;1101;22827;-69
2021/08/18 09:29:24;;;;;;;9.18;5.95;;;;;;;19.90;54.04;98300.95;125843;1101;23583;-69
2021/08/18 09:31:50;;;;;;;8.93;5.33;;;;;;;19.88;53.19;98303.21;125622;1102;26344;-69
2021/08/18 09:34:17;;;;;;;11.60;5.87;;;;;;;19.69;52.26;98297.81;125447;1102;26378;-69
2021/08/18 09:37:19;;;;;;;8.33;5.35;;;;;;;19.41;52.58;98303.34;125363;1102;22847;-69
2021/08/18 09:39:46;;;;;;;10.08;5.58;;;;;;;19.31;53.70;98303.54;125557;1101;22901;-69
2021/08/18 09:42:36;;;;;;;9.83;6.33;;;;;;;19.41;53.64;98306.11;125680;1102;24797;-69
2021/08/18 09:45:10;;;;;;;9.68;5.83;;;;;;;19.45;52.79;98306.31;125490;1103;26287;-69
2021/08/18 09:48:00;;;;;;;9.73;6.20;;;;;;;19.53;54.12;98302.84;125616;1102;22872;-69
2021/08/18 09:50:38;;;;;;;11.70;6.67;;;;;;;19.69;54.13;98292.28;125693;1103;22840;-69
2021/08/18 09:53:07;;;;;;;9.58;5.90;;;;;;;19.93;52.12;98294.00;125649;1102;23578;-69
2021/08/18 09:55:34;;;;;;;10.50;6.15;;;;;;;20.21;52.38;98292.78;125311;1103;22848;-69
2021/08/18 09:58:02;;;;;;;10.57;5.97;;;;;;;20.50;52.05;98302.59;125126;1103;24514;-71
2021/08/18 10:00:30;;;;;;;10.47;5.90;;;;;;;20.75;51.58;98292.05;125317;1103;23357;-70
2021/08/18 10:02:58;;;;;;;9.03;6.48;;;;;;;20.86;50.42;98296.21;125048;1103;24895;-70
2021/08/18 10:05:28;;;;;;;11.60;6.08;;;;;;;21.02;49.37;98286.36;125181;1103;22963;-69
2021/08/18 10:07:56;;;;;;;11.93;5.90;;;;;;;21.03;50.74;98292.70;125195;1103;22893;-69
2021/08/18 10:10:27;;;;;;;10.73;6.33;;;;;;;21.00;49.99;98298.87;125273;1101;24486;-70
2021/08/18 10:13:09;;;;;;;10.17;5.77;;;;;;;20.78;49.84;98305.27;126079;1103;22815;-70
2021/08/18 10:15:37;;;;;;;11.65;6.13;;;;;;;20.49;50.63;98306.52;125302;1103;22971;-69
2021/08/18 10:18:06;;;;;;;10.50;5.90;;;;;;;20.14;50.53;98294.36;126062;1103;24656;-70
2021/08/18 10:20:34;;;;;;;8.98;5.58;;;;;;;19.80;51.23;98296.48;125373;1103;24152;-70
2021/08/18 10:23:04;;;;;;;;;;;;;;;19.42;51.79;98304.96;125382;1103;22869;-70
2021/08/18 10:25:50;;;;;;;11.20;6.10;;;;;;;19.09;52.92;98301.50;125404;1103;23944;-70
2021/08/18 10:28:59;;;;;;;8.15;5.78;;;;;;;18.75;53.74;98295.16;125634;1103;23196;-70
2021/08/18 10:31:40;;;;;;;;;;;;;;;18.50;54.72;98299.18;125662;1103;22827;-70
2021/08/18 10:34:09;;;;;;;11.43;6.03;;;;;;;18.50;55.27;98290.91;125262;1102;21498;-70
2021/08/18 10:39:22;;;;;;;9.80;6.15;;;;;;;18.74;55.81;98300.98;125498;1102;22819;-70
2021/08/18 10:42:21;;;;;;;9.20;6.45;;;;;;;18.71;55.66;98288.59;125366;1102;22807;-69
2021/08/18 10:45:22;;;;;;;10.48;5.63;;;;;;;19.04;55.97;98283.08;125183;1103;22827;-70
2021/08/18 10:47:50;;;;;;;8.75;5.78;;;;;;;19.37;55.26;98280.23;125307;1102;22838;-70
2021/08/18 10:50:39;;;;;;;9.50;5.40;;;;;;;19.75;56.17;98288.30;125435;1103;22949;-70
2021/08/18 10:53:30;;;;;;;10.97;5.10;;;;;;;20.12;53.94;98283.61;125865;1103;26009;-69
2021/08/18 10:55:57;;;;;;;13.43;6.50;;;;;;;20.36;53.44;98288.02;125474;1101;22838;-69
2021/08/18 10:58:29;;;;;;;8.37;5.20;;;;;;;20.53;52.45;98285.38;125258;1101;22862;-70
2021/08/18 11:00:56;;;;;;;9.00;5.28;;;;;;;20.67;51.92;98279.81;125579;1102;22817;-69
2021/08/18 11:03:30;;;;;;;9.70;5.28;;;;;;;20.62;49.74;98277.98;126247;1103;22812;-70
2021/08/18 11:05:58;;;;;;;8.73;5.55;;;;;;;20.78;51.67;98278.41;125181;1103;22848;-69
2021/08/18 11:08:50;;;;;;;5.60;4.00;;;;;;;21.02;49.20;98269.75;124930;1103;22925;-70
2021/08/18 11:11:18;;;;;;;7.15;5.05;;;;;;;21.16;50.74;98266.04;124965;1103;22844;-69
2021/08/18 11:14:09;;;;;;;8.90;5.45;;;;;;;21.28;49.93;98268.22;124967;1103;22870;-69
2021/08/18 11:16:35;;;;;;;7.13;4.75;;;;;;;21.32;49.04;98260.88;125056;1103;22873;-69
2021/08/18 11:19:11;;;;;;;7.50;5.20;;;;;;;21.40;47.65;98269.23;125126;1103;27193;-69
2021/08/18 11:21:40;;;;;;;7.13;4.50;;;;;;;21.50;45.63;98259.04;125026;1103;22958;-69
2021/08/18 11:24:15;;;;;;;7.93;4.43;;;;;;;21.65;44.78;98268.84;125019;1103;26283;-69
2021/08/18 11:26:45;;;;;;;8.70;4.50;;;;;;;21.81;44.98;98261.69;125015;1103;22845;-69
2021/08/18 11:29:30;;;;;;;7.83;4.87;;;;;;;21.94;44.18;98271.02;124947;1101;22835;-69
2021/08/18 11:31:57;;;;;;;8.47;5.10;;;;;;;22.04;45.30;98276.22;125046;1103;22886;-69
2021/08/18 11:34:42;;;;;;;6.33;4.65;;;;;;;22.24;44.80;98268.39;125278;1103;22842;-69
2021/08/18 11:37:12;;;;;;;7.60;5.13;;;;;;;22.25;43.50;98270.04;125016;1103;23017;-69